sensor_id;sensor_type;location;lat;lon;timestamp;temperature;humidity
52555;DHT22;38455;52.710;6.502;2024-03-08T00:02:07;2.70;99.90
52555;DHT22;38455;52.710;6.502;2024-03-08T00:04:33;2.70;99.90
52555;DHT22;38455;52.710;6.502;2024-03-08T00:06:59;2.70;99.90
52555;DHT22;38455;52.710;6.502;2024-03-08T00:09:24;2.70;99.90
52555;DHT22;38455;52.710;6.502;2024-03-08T00:11:52;2.70;99.90
52555;DHT22;38455;52.710;6.502;2024-03-08T00:14:18;2.70;99.90
52555;DHT22;38455;52.710;6.502;2024-03-08T00:16:44;2.70;99.90
52555;DHT22;38455;52.710;6.502;2024-03-08T00:19:09;2.70;99.90
52555;DHT22;38455;52.710;6.502;2024-03-08T00:21:35;2.70;99.90
52555;DHT22;38455;52.710;6.502;2024-03-08T00:24:01;2.70;99.90
52555;DHT22;38455;52.710;6.502;2024-03-08T00:26:27;2.70;99.90
52555;DHT22;38455;52.710;6.502;2024-03-08T00:28:54;2.70;99.90
52555;DHT22;38455;52.710;6.502;2024-03-08T00:31:19;2.70;99.90
52555;DHT22;38455;52.710;6.502;2024-03-08T00:33:45;2.70;99.90
52555;DHT22;38455;52.710;6.502;2024-03-08T00:36:11;2.60;99.90
52555;DHT22;38455;52.710;6.502;2024-03-08T00:38:37;2.60;99.90
52555;DHT22;38455;52.710;6.502;2024-03-08T00:41:02;2.60;99.90
52555;DHT22;38455;52.710;6.502;2024-03-08T00:43:28;2.60;99.90
52555;DHT22;38455;52.710;6.502;2024-03-08T00:45:55;2.60;99.90
52555;DHT22;38455;52.710;6.502;2024-03-08T00:48:23;2.60;99.90
52555;DHT22;38455;52.710;6.502;2024-03-08T00:50:48;2.60;99.90
52555;DHT22;38455;52.710;6.502;2024-03-08T00:53:14;2.60;99.90
52555;DHT22;38455;52.710;6.502;2024-03-08T00:55:40;2.60;99.90
52555;DHT22;38455;52.710;6.502;2024-03-08T00:58:05;2.60;99.90
52555;DHT22;38455;52.710;6.502;2024-03-08T01:00:31;2.50;99.90
52555;DHT22;38455;52.710;6.502;2024-03-08T01:02:57;2.60;99.90
52555;DHT22;38455;52.710;6.502;2024-03-08T01:05:23;2.50;99.90
52555;DHT22;38455;52.710;6.502;2024-03-08T01:07:50;2.50;99.90
52555;DHT22;38455;52.710;6.502;2024-03-08T01:10:17;2.50;99.90
52555;DHT22;38455;52.710;6.502;2024-03-08T01:12:42;2.50;99.90
52555;DHT22;38455;52.710;6.502;2024-03-08T01:15:11;2.50;99.90
52555;DHT22;38455;52.710;6.502;2024-03-08T01:17:37;2.50;99.90
52555;DHT22;38455;52.710;6.502;2024-03-08T01:20:04;2.50;99.90
52555;DHT22;38455;52.710;6.502;2024-03-08T01:22:30;2.40;99.90
52555;DHT22;38455;52.710;6.502;2024-03-08T01:24:56;2.40;99.90
52555;DHT22;38455;52.710;6.502;2024-03-08T01:27:22;2.50;99.90
52555;DHT22;38455;52.710;6.502;2024-03-08T01:29:50;2.40;99.90
52555;DHT22;38455;52.710;6.502;2024-03-08T01:32:16;2.40;99.90
52555;DHT22;38455;52.710;6.502;2024-03-08T01:34:41;2.40;99.90
52555;DHT22;38455;52.710;6.502;2024-03-08T01:37:07;2.40;99.90
52555;DHT22;38455;52.710;6.502;2024-03-08T01:39:33;2.30;99.90
52555;DHT22;38455;52.710;6.502;2024-03-08T01:41:59;2.30;99.90
52555;DHT22;38455;52.710;6.502;2024-03-08T01:44:26;2.40;99.90
52555;DHT22;38455;52.710;6.502;2024-03-08T01:47:02;2.30;99.90
52555;DHT22;38455;52.710;6.502;2024-03-08T01:49:27;2.30;99.90
52555;DHT22;38455;52.710;6.502;2024-03-08T01:51:53;2.30;99.90
52555;DHT22;38455;52.710;6.502;2024-03-08T01:54:22;2.30;99.90
52555;DHT22;38455;52.710;6.502;2024-03-08T01:56:49;2.20;99.90
52555;DHT22;38455;52.710;6.502;2024-03-08T01:59:15;2.20;99.90
52555;DHT22;38455;52.710;6.502;2024-03-08T02:01:41;2.10;99.90
52555;DHT22;38455;52.710;6.502;2024-03-08T02:04:07;2.10;99.90
52555;DHT22;38455;52.710;6.502;2024-03-08T02:06:33;2.20;99.90
52555;DHT22;38455;52.710;6.502;2024-03-08T02:08:59;2.10;99.90
52555;DHT22;38455;52.710;6.502;2024-03-08T02:11:25;2.10;99.90
52555;DHT22;38455;52.710;6.502;2024-03-08T02:13:51;2.10;99.90
52555;DHT22;38455;52.710;6.502;2024-03-08T02:16:22;2.00;99.90
52555;DHT22;38455;52.710;6.502;2024-03-08T02:18:48;2.10;99.90
52555;DHT22;38455;52.710;6.502;2024-03-08T02:21:16;2.00;99.90
52555;DHT22;38455;52.710;6.502;2024-03-08T02:23:43;2.00;99.90
52555;DHT22;38455;52.710;6.502;2024-03-08T02:26:09;2.00;99.90
52555;DHT22;38455;52.710;6.502;2024-03-08T02:28:35;2.00;99.90
52555;DHT22;38455;52.710;6.502;2024-03-08T02:31:01;1.90;99.90
52555;DHT22;38455;52.710;6.502;2024-03-08T02:33:28;1.90;99.90
52555;DHT22;38455;52.710;6.502;2024-03-08T02:35:54;1.90;99.90
52555;DHT22;38455;52.710;6.502;2024-03-08T02:38:22;1.90;99.90
52555;DHT22;38455;52.710;6.502;2024-03-08T02:40:53;1.90;99.90
52555;DHT22;38455;52.710;6.502;2024-03-08T02:43:20;1.90;99.90
52555;DHT22;38455;52.710;6.502;2024-03-08T02:45:47;1.90;99.90
52555;DHT22;38455;52.710;6.502;2024-03-08T02:48:14;1.80;99.90
52555;DHT22;38455;52.710;6.502;2024-03-08T02:50:41;1.90;99.90
52555;DHT22;38455;52.710;6.502;2024-03-08T02:53:11;1.90;99.90
52555;DHT22;38455;52.710;6.502;2024-03-08T02:55:38;1.80;99.90
52555;DHT22;38455;52.710;6.502;2024-03-08T02:58:05;1.80;99.90
52555;DHT22;38455;52.710;6.502;2024-03-08T03:00:30;1.80;99.90
52555;DHT22;38455;52.710;6.502;2024-03-08T03:02:57;1.80;99.90
52555;DHT22;38455;52.710;6.502;2024-03-08T03:05:23;1.80;99.90
52555;DHT22;38455;52.710;6.502;2024-03-08T03:07:50;1.70;99.90
52555;DHT22;38455;52.710;6.502;2024-03-08T03:10:19;1.70;99.90
52555;DHT22;38455;52.710;6.502;2024-03-08T03:12:45;1.70;99.90
52555;DHT22;38455;52.710;6.502;2024-03-08T03:15:12;1.70;99.90
52555;DHT22;38455;52.710;6.502;2024-03-08T03:17:39;1.60;99.90
52555;DHT22;38455;52.710;6.502;2024-03-08T03:20:07;1.60;99.90
52555;DHT22;38455;52.710;6.502;2024-03-08T03:22:38;1.60;99.90
52555;DHT22;38455;52.710;6.502;2024-03-08T03:25:04;1.60;99.90
52555;DHT22;38455;52.710;6.502;2024-03-08T03:27:32;1.60;99.90
52555;DHT22;38455;52.710;6.502;2024-03-08T03:29:57;1.60;99.90
52555;DHT22;38455;52.710;6.502;2024-03-08T03:32:23;1.50;99.90
52555;DHT22;38455;52.710;6.502;2024-03-08T03:34:49;1.50;99.90
52555;DHT22;38455;52.710;6.502;2024-03-08T03:37:19;1.50;99.90
52555;DHT22;38455;52.710;6.502;2024-03-08T03:39:45;1.50;99.90
52555;DHT22;38455;52.710;6.502;2024-03-08T03:42:15;1.50;99.90
52555;DHT22;38455;52.710;6.502;2024-03-08T03:44:48;1.50;99.90
52555;DHT22;38455;52.710;6.502;2024-03-08T03:47:14;1.50;99.90
52555;DHT22;38455;52.710;6.502;2024-03-08T03:49:43;1.50;99.90
52555;DHT22;38455;52.710;6.502;2024-03-08T03:52:10;1.50;99.90
52555;DHT22;38455;52.710;6.502;2024-03-08T03:54:36;1.50;99.90
52555;DHT22;38455;52.710;6.502;2024-03-08T03:57:02;1.50;99.90
52555;DHT22;38455;52.710;6.502;2024-03-08T03:59:28;1.50;99.90
52555;DHT22;38455;52.710;6.502;2024-03-08T04:01:54;1.50;99.90
52555;DHT22;38455;52.710;6.502;2024-03-08T04:04:20;1.50;99.90
52555;DHT22;38455;52.710;6.502;2024-03-08T04:06:46;1.50;99.90
52555;DHT22;38455;52.710;6.502;2024-03-08T04:09:12;1.50;99.90
52555;DHT22;38455;52.710;6.502;2024-03-08T04:11:38;1.40;99.90
52555;DHT22;38455;52.710;6.502;2024-03-08T04:14:04;1.40;99.90
52555;DHT22;38455;52.710;6.502;2024-03-08T04:16:30;1.40;99.90
52555;DHT22;38455;52.710;6.502;2024-03-08T04:18:57;1.40;99.90
52555;DHT22;38455;52.710;6.502;2024-03-08T04:21:23;1.40;99.90
52555;DHT22;38455;52.710;6.502;2024-03-08T04:23:48;1.40;99.90
52555;DHT22;38455;52.710;6.502;2024-03-08T04:26:14;1.40;99.90
52555;DHT22;38455;52.710;6.502;2024-03-08T04:28:40;1.40;99.90
52555;DHT22;38455;52.710;6.502;2024-03-08T04:31:05;1.30;99.90
52555;DHT22;38455;52.710;6.502;2024-03-08T04:33:32;1.30;99.90
52555;DHT22;38455;52.710;6.502;2024-03-08T04:35:58;1.30;99.90
52555;DHT22;38455;52.710;6.502;2024-03-08T04:38:24;1.30;99.90
52555;DHT22;38455;52.710;6.502;2024-03-08T04:40:50;1.30;99.90
52555;DHT22;38455;52.710;6.502;2024-03-08T04:43:16;1.30;99.90
52555;DHT22;38455;52.710;6.502;2024-03-08T04:45:44;1.20;99.90
52555;DHT22;38455;52.710;6.502;2024-03-08T04:48:10;1.20;99.90
52555;DHT22;38455;52.710;6.502;2024-03-08T04:50:37;1.20;99.90
52555;DHT22;38455;52.710;6.502;2024-03-08T04:53:03;1.20;99.90
52555;DHT22;38455;52.710;6.502;2024-03-08T04:55:30;1.20;99.90
52555;DHT22;38455;52.710;6.502;2024-03-08T04:57:55;1.10;99.90
52555;DHT22;38455;52.710;6.502;2024-03-08T05:00:21;1.10;99.90
52555;DHT22;38455;52.710;6.502;2024-03-08T05:02:46;1.10;99.90
52555;DHT22;38455;52.710;6.502;2024-03-08T05:05:12;1.10;99.90
52555;DHT22;38455;52.710;6.502;2024-03-08T05:07:39;1.10;99.90
52555;DHT22;38455;52.710;6.502;2024-03-08T05:10:06;1.00;99.90
52555;DHT22;38455;52.710;6.502;2024-03-08T05:12:35;1.10;99.90
52555;DHT22;38455;52.710;6.502;2024-03-08T05:15:01;1.10;99.90
52555;DHT22;38455;52.710;6.502;2024-03-08T05:17:26;1.00;99.90
52555;DHT22;38455;52.710;6.502;2024-03-08T05:19:53;1.00;99.90
52555;DHT22;38455;52.710;6.502;2024-03-08T05:22:19;1.00;99.90
52555;DHT22;38455;52.710;6.502;2024-03-08T05:24:44;1.00;99.90
52555;DHT22;38455;52.710;6.502;2024-03-08T05:27:10;1.00;99.90
52555;DHT22;38455;52.710;6.502;2024-03-08T05:29:36;0.90;99.90
52555;DHT22;38455;52.710;6.502;2024-03-08T05:32:02;0.90;99.90
52555;DHT22;38455;52.710;6.502;2024-03-08T05:34:29;1.00;99.90
52555;DHT22;38455;52.710;6.502;2024-03-08T05:36:55;0.90;99.90
52555;DHT22;38455;52.710;6.502;2024-03-08T05:39:21;0.90;99.90
52555;DHT22;38455;52.710;6.502;2024-03-08T05:41:47;0.90;99.90
52555;DHT22;38455;52.710;6.502;2024-03-08T05:44:13;0.90;99.90
52555;DHT22;38455;52.710;6.502;2024-03-08T05:46:39;0.90;99.90
52555;DHT22;38455;52.710;6.502;2024-03-08T05:49:06;0.90;99.90
52555;DHT22;38455;52.710;6.502;2024-03-08T05:51:36;0.90;99.90
52555;DHT22;38455;52.710;6.502;2024-03-08T05:54:11;0.90;99.90
52555;DHT22;38455;52.710;6.502;2024-03-08T05:56:37;0.90;99.90
52555;DHT22;38455;52.710;6.502;2024-03-08T05:59:03;0.90;99.90
52555;DHT22;38455;52.710;6.502;2024-03-08T06:01:29;0.90;99.90
52555;DHT22;38455;52.710;6.502;2024-03-08T06:03:56;0.90;99.90
52555;DHT22;38455;52.710;6.502;2024-03-08T06:06:25;0.90;99.90
52555;DHT22;38455;52.710;6.502;2024-03-08T06:08:51;0.90;99.90
52555;DHT22;38455;52.710;6.502;2024-03-08T06:11:18;0.90;99.90
52555;DHT22;38455;52.710;6.502;2024-03-08T06:13:45;0.90;99.90
52555;DHT22;38455;52.710;6.502;2024-03-08T06:16:11;0.90;99.90
52555;DHT22;38455;52.710;6.502;2024-03-08T06:18:37;0.90;99.90
52555;DHT22;38455;52.710;6.502;2024-03-08T06:21:06;0.90;99.90
52555;DHT22;38455;52.710;6.502;2024-03-08T06:23:32;0.90;99.90
52555;DHT22;38455;52.710;6.502;2024-03-08T06:25:58;0.90;99.90
52555;DHT22;38455;52.710;6.502;2024-03-08T06:28:24;0.90;99.90
52555;DHT22;38455;52.710;6.502;2024-03-08T06:30:50;0.90;99.90
52555;DHT22;38455;52.710;6.502;2024-03-08T06:33:17;0.90;99.90
52555;DHT22;38455;52.710;6.502;2024-03-08T06:35:43;1.00;99.90
52555;DHT22;38455;52.710;6.502;2024-03-08T06:38:08;1.00;99.90
52555;DHT22;38455;52.710;6.502;2024-03-08T06:40:34;1.00;99.90
52555;DHT22;38455;52.710;6.502;2024-03-08T06:43:00;1.00;99.90
52555;DHT22;38455;52.710;6.502;2024-03-08T06:45:26;1.10;99.90
52555;DHT22;38455;52.710;6.502;2024-03-08T06:47:52;1.00;99.90
52555;DHT22;38455;52.710;6.502;2024-03-08T06:50:17;1.10;99.90
52555;DHT22;38455;52.710;6.502;2024-03-08T06:52:43;1.10;99.90
52555;DHT22;38455;52.710;6.502;2024-03-08T06:55:10;1.10;99.90
52555;DHT22;38455;52.710;6.502;2024-03-08T06:57:39;1.20;99.90
52555;DHT22;38455;52.710;6.502;2024-03-08T07:00:07;1.30;99.90
52555;DHT22;38455;52.710;6.502;2024-03-08T07:02:35;1.30;99.90
52555;DHT22;38455;52.710;6.502;2024-03-08T07:05:01;1.30;99.90
52555;DHT22;38455;52.710;6.502;2024-03-08T07:07:27;1.40;99.90
52555;DHT22;38455;52.710;6.502;2024-03-08T07:09:52;1.40;99.90
52555;DHT22;38455;52.710;6.502;2024-03-08T07:12:19;1.50;99.90
52555;DHT22;38455;52.710;6.502;2024-03-08T07:14:46;1.50;99.90
52555;DHT22;38455;52.710;6.502;2024-03-08T07:17:12;1.60;99.90
52555;DHT22;38455;52.710;6.502;2024-03-08T07:19:38;1.70;99.90
52555;DHT22;38455;52.710;6.502;2024-03-08T07:22:04;1.80;99.90
52555;DHT22;38455;52.710;6.502;2024-03-08T07:24:36;1.90;99.90
52555;DHT22;38455;52.710;6.502;2024-03-08T07:27:04;2.30;99.90
52555;DHT22;38455;52.710;6.502;2024-03-08T07:29:31;2.80;99.90
52555;DHT22;38455;52.710;6.502;2024-03-08T07:31:57;3.50;99.90
52555;DHT22;38455;52.710;6.502;2024-03-08T07:34:49;4.00;99.90
52555;DHT22;38455;52.710;6.502;2024-03-08T07:37:18;4.80;99.90
52555;DHT22;38455;52.710;6.502;2024-03-08T07:39:46;5.20;99.90
52555;DHT22;38455;52.710;6.502;2024-03-08T07:42:11;5.60;99.90
52555;DHT22;38455;52.710;6.502;2024-03-08T07:44:38;6.00;99.90
52555;DHT22;38455;52.710;6.502;2024-03-08T07:47:04;6.30;99.90
52555;DHT22;38455;52.710;6.502;2024-03-08T07:49:30;6.50;99.90
52555;DHT22;38455;52.710;6.502;2024-03-08T07:51:56;6.60;99.90
52555;DHT22;38455;52.710;6.502;2024-03-08T07:54:22;6.80;99.90
52555;DHT22;38455;52.710;6.502;2024-03-08T07:56:47;6.80;99.90
52555;DHT22;38455;52.710;6.502;2024-03-08T07:59:13;7.00;99.90
52555;DHT22;38455;52.710;6.502;2024-03-08T08:01:39;7.50;99.90
52555;DHT22;38455;52.710;6.502;2024-03-08T08:04:04;7.50;99.90
52555;DHT22;38455;52.710;6.502;2024-03-08T08:06:30;7.70;99.90
52555;DHT22;38455;52.710;6.502;2024-03-08T08:08:59;7.70;99.90
52555;DHT22;38455;52.710;6.502;2024-03-08T08:11:28;8.00;99.90
52555;DHT22;38455;52.710;6.502;2024-03-08T08:13:54;8.40;99.90
52555;DHT22;38455;52.710;6.502;2024-03-08T08:16:25;8.60;99.90
52555;DHT22;38455;52.710;6.502;2024-03-08T08:18:51;8.90;99.90
52555;DHT22;38455;52.710;6.502;2024-03-08T08:21:18;8.80;99.90
52555;DHT22;38455;52.710;6.502;2024-03-08T08:23:43;9.50;99.90
52555;DHT22;38455;52.710;6.502;2024-03-08T08:26:10;9.60;99.90
52555;DHT22;38455;52.710;6.502;2024-03-08T08:28:36;9.60;99.90
52555;DHT22;38455;52.710;6.502;2024-03-08T08:31:03;9.70;99.90
52555;DHT22;38455;52.710;6.502;2024-03-08T08:33:29;9.60;99.90
52555;DHT22;38455;52.710;6.502;2024-03-08T08:35:55;9.70;99.90
52555;DHT22;38455;52.710;6.502;2024-03-08T08:38:21;9.70;99.90
52555;DHT22;38455;52.710;6.502;2024-03-08T08:40:48;10.20;99.90
52555;DHT22;38455;52.710;6.502;2024-03-08T08:43:16;10.50;99.90
52555;DHT22;38455;52.710;6.502;2024-03-08T08:45:42;10.20;99.90
52555;DHT22;38455;52.710;6.502;2024-03-08T08:48:08;10.20;99.90
52555;DHT22;38455;52.710;6.502;2024-03-08T08:50:35;10.70;99.90
52555;DHT22;38455;52.710;6.502;2024-03-08T08:53:02;11.20;99.90
52555;DHT22;38455;52.710;6.502;2024-03-08T08:55:29;11.10;99.90
52555;DHT22;38455;52.710;6.502;2024-03-08T08:57:56;11.60;99.90
52555;DHT22;38455;52.710;6.502;2024-03-08T09:00:22;11.60;99.50
52555;DHT22;38455;52.710;6.502;2024-03-08T09:02:52;11.70;98.40
52555;DHT22;38455;52.710;6.502;2024-03-08T09:05:20;11.70;98.70
52555;DHT22;38455;52.710;6.502;2024-03-08T09:07:47;11.60;98.30
52555;DHT22;38455;52.710;6.502;2024-03-08T09:10:12;12.00;98.80
52555;DHT22;38455;52.710;6.502;2024-03-08T09:12:39;12.10;98.80
52555;DHT22;38455;52.710;6.502;2024-03-08T09:15:06;12.40;98.30
52555;DHT22;38455;52.710;6.502;2024-03-08T09:17:34;12.40;97.20
52555;DHT22;38455;52.710;6.502;2024-03-08T09:19:59;12.20;97.30
52555;DHT22;38455;52.710;6.502;2024-03-08T09:22:26;12.30;97.10
52555;DHT22;38455;52.710;6.502;2024-03-08T09:24:51;12.40;96.10
52555;DHT22;38455;52.710;6.502;2024-03-08T09:27:17;12.30;96.30
52555;DHT22;38455;52.710;6.502;2024-03-08T09:29:43;12.30;96.20
52555;DHT22;38455;52.710;6.502;2024-03-08T09:32:10;11.90;95.40
52555;DHT22;38455;52.710;6.502;2024-03-08T09:34:37;11.90;96.00
52555;DHT22;38455;52.710;6.502;2024-03-08T09:37:03;11.80;95.60
52555;DHT22;38455;52.710;6.502;2024-03-08T09:39:30;12.20;95.60
52555;DHT22;38455;52.710;6.502;2024-03-08T09:41:55;12.00;95.60
52555;DHT22;38455;52.710;6.502;2024-03-08T09:44:22;12.00;95.70
52555;DHT22;38455;52.710;6.502;2024-03-08T09:46:49;12.50;95.80
52555;DHT22;38455;52.710;6.502;2024-03-08T09:49:17;12.70;95.50
52555;DHT22;38455;52.710;6.502;2024-03-08T09:51:42;12.90;94.80
52555;DHT22;38455;52.710;6.502;2024-03-08T09:54:08;12.90;94.70
52555;DHT22;38455;52.710;6.502;2024-03-08T09:56:39;13.30;94.60
52555;DHT22;38455;52.710;6.502;2024-03-08T09:59:06;13.30;93.50
52555;DHT22;38455;52.710;6.502;2024-03-08T10:01:51;12.90;93.50
52555;DHT22;38455;52.710;6.502;2024-03-08T10:04:25;13.20;93.70
52555;DHT22;38455;52.710;6.502;2024-03-08T10:06:57;13.00;93.50
52555;DHT22;38455;52.710;6.502;2024-03-08T10:09:24;13.30;94.00
52555;DHT22;38455;52.710;6.502;2024-03-08T10:11:58;13.50;93.90
52555;DHT22;38455;52.710;6.502;2024-03-08T10:14:25;14.00;93.20
52555;DHT22;38455;52.710;6.502;2024-03-08T10:16:52;13.50;93.00
52555;DHT22;38455;52.710;6.502;2024-03-08T10:19:18;13.40;92.70
52555;DHT22;38455;52.710;6.502;2024-03-08T10:21:52;13.70;92.90
52555;DHT22;38455;52.710;6.502;2024-03-08T10:24:25;14.20;92.70
52555;DHT22;38455;52.710;6.502;2024-03-08T10:27:01;14.10;91.70
52555;DHT22;38455;52.710;6.502;2024-03-08T10:29:31;13.60;91.60
52555;DHT22;38455;52.710;6.502;2024-03-08T10:31:57;14.20;92.50
52555;DHT22;38455;52.710;6.502;2024-03-08T10:34:23;14.50;92.50
52555;DHT22;38455;52.710;6.502;2024-03-08T10:36:51;14.10;92.10
52555;DHT22;38455;52.710;6.502;2024-03-08T10:39:22;14.60;91.80
52555;DHT22;38455;52.710;6.502;2024-03-08T10:42:12;14.60;90.90
52555;DHT22;38455;52.710;6.502;2024-03-08T10:44:49;14.30;89.70
52555;DHT22;38455;52.710;6.502;2024-03-08T10:47:26;15.20;90.90
52555;DHT22;38455;52.710;6.502;2024-03-08T10:50:15;15.40;90.50
52555;DHT22;38455;52.710;6.502;2024-03-08T10:52:49;14.90;89.30
52555;DHT22;38455;52.710;6.502;2024-03-08T10:55:19;15.00;90.10
52555;DHT22;38455;52.710;6.502;2024-03-08T10:57:48;15.10;89.70
52555;DHT22;38455;52.710;6.502;2024-03-08T11:00:14;15.50;90.40
52555;DHT22;38455;52.710;6.502;2024-03-08T11:02:46;15.60;90.40
52555;DHT22;38455;52.710;6.502;2024-03-08T11:05:32;15.70;88.60
52555;DHT22;38455;52.710;6.502;2024-03-08T11:08:01;15.70;88.70
52555;DHT22;38455;52.710;6.502;2024-03-08T11:10:28;14.90;89.20
52555;DHT22;38455;52.710;6.502;2024-03-08T11:12:53;14.70;89.20
52555;DHT22;38455;52.710;6.502;2024-03-08T11:15:19;14.90;89.70
52555;DHT22;38455;52.710;6.502;2024-03-08T11:17:49;15.10;89.80
52555;DHT22;38455;52.710;6.502;2024-03-08T11:20:20;15.20;88.60
52555;DHT22;38455;52.710;6.502;2024-03-08T11:23:04;15.40;87.60
52555;DHT22;38455;52.710;6.502;2024-03-08T11:25:37;15.30;88.40
52555;DHT22;38455;52.710;6.502;2024-03-08T11:28:27;15.40;88.30
52555;DHT22;38455;52.710;6.502;2024-03-08T11:33:28;15.60;86.50
52555;DHT22;38455;52.710;6.502;2024-03-08T11:36:24;15.30;87.20
52555;DHT22;38455;52.710;6.502;2024-03-08T11:38:51;15.20;85.80
52555;DHT22;38455;52.710;6.502;2024-03-08T11:41:19;15.60;86.50
52555;DHT22;38455;52.710;6.502;2024-03-08T11:43:47;15.80;85.70
52555;DHT22;38455;52.710;6.502;2024-03-08T11:46:14;15.90;85.30
52555;DHT22;38455;52.710;6.502;2024-03-08T11:48:41;15.60;84.70
52555;DHT22;38455;52.710;6.502;2024-03-08T11:51:13;15.90;85.20
52555;DHT22;38455;52.710;6.502;2024-03-08T11:53:40;15.90;85.20
52555;DHT22;38455;52.710;6.502;2024-03-08T11:56:11;15.70;85.00
52555;DHT22;38455;52.710;6.502;2024-03-08T11:58:37;15.00;83.70
52555;DHT22;38455;52.710;6.502;2024-03-08T12:01:04;15.80;85.20
52555;DHT22;38455;52.710;6.502;2024-03-08T12:03:31;15.20;83.80
52555;DHT22;38455;52.710;6.502;2024-03-08T12:06:00;15.40;84.20
52555;DHT22;38455;52.710;6.502;2024-03-08T12:08:26;15.80;84.40
52555;DHT22;38455;52.710;6.502;2024-03-08T12:10:55;16.00;85.30
52555;DHT22;38455;52.710;6.502;2024-03-08T12:13:28;15.70;84.60
52555;DHT22;38455;52.710;6.502;2024-03-08T12:15:58;16.30;83.40
52555;DHT22;38455;52.710;6.502;2024-03-08T12:18:27;15.50;82.60
52555;DHT22;38455;52.710;6.502;2024-03-08T12:21:11;15.60;83.70
52555;DHT22;38455;52.710;6.502;2024-03-08T12:23:38;15.30;83.50
52555;DHT22;38455;52.710;6.502;2024-03-08T12:28:41;15.40;83.90
52555;DHT22;38455;52.710;6.502;2024-03-08T12:31:08;15.40;82.80
52555;DHT22;38455;52.710;6.502;2024-03-08T12:33:57;15.60;83.70
52555;DHT22;38455;52.710;6.502;2024-03-08T12:36:25;15.70;82.50
52555;DHT22;38455;52.710;6.502;2024-03-08T12:38:53;16.50;82.70
52555;DHT22;38455;52.710;6.502;2024-03-08T12:41:21;16.20;82.10
52555;DHT22;38455;52.710;6.502;2024-03-08T12:43:47;15.70;82.00
52555;DHT22;38455;52.710;6.502;2024-03-08T12:46:19;15.40;82.40
52555;DHT22;38455;52.710;6.502;2024-03-08T12:48:46;15.10;83.50
52555;DHT22;38455;52.710;6.502;2024-03-08T12:51:16;14.90;83.10
52555;DHT22;38455;52.710;6.502;2024-03-08T12:53:44;15.10;83.70
52555;DHT22;38455;52.710;6.502;2024-03-08T12:56:10;14.80;83.80
52555;DHT22;38455;52.710;6.502;2024-03-08T12:58:36;14.80;85.40
52555;DHT22;38455;52.710;6.502;2024-03-08T13:01:05;14.40;86.00
52555;DHT22;38455;52.710;6.502;2024-03-08T13:03:36;14.00;86.00
52555;DHT22;38455;52.710;6.502;2024-03-08T13:06:05;13.70;85.90
52555;DHT22;38455;52.710;6.502;2024-03-08T13:08:35;13.50;86.30
52555;DHT22;38455;52.710;6.502;2024-03-08T13:11:01;13.50;87.00
52555;DHT22;38455;52.710;6.502;2024-03-08T13:13:29;12.80;86.60
52555;DHT22;38455;52.710;6.502;2024-03-08T13:15:54;12.40;87.70
52555;DHT22;38455;52.710;6.502;2024-03-08T13:18:22;12.30;89.00
52555;DHT22;38455;52.710;6.502;2024-03-08T13:20:48;11.80;90.10
52555;DHT22;38455;52.710;6.502;2024-03-08T13:23:17;11.50;90.70
52555;DHT22;38455;52.710;6.502;2024-03-08T13:25:43;11.50;91.00
52555;DHT22;38455;52.710;6.502;2024-03-08T13:28:09;11.70;91.70
52555;DHT22;38455;52.710;6.502;2024-03-08T13:30:36;11.50;91.90
52555;DHT22;38455;52.710;6.502;2024-03-08T13:33:02;11.40;91.70
52555;DHT22;38455;52.710;6.502;2024-03-08T13:35:33;11.20;91.60
52555;DHT22;38455;52.710;6.502;2024-03-08T13:38:00;11.20;92.00
52555;DHT22;38455;52.710;6.502;2024-03-08T13:40:28;11.00;92.30
52555;DHT22;38455;52.710;6.502;2024-03-08T13:42:54;10.90;92.40
52555;DHT22;38455;52.710;6.502;2024-03-08T13:45:19;10.90;92.50
52555;DHT22;38455;52.710;6.502;2024-03-08T13:47:49;10.70;92.80
52555;DHT22;38455;52.710;6.502;2024-03-08T13:50:17;10.70;92.60
52555;DHT22;38455;52.710;6.502;2024-03-08T13:52:47;10.80;93.00
52555;DHT22;38455;52.710;6.502;2024-03-08T13:55:23;10.80;93.10
52555;DHT22;38455;52.710;6.502;2024-03-08T13:57:50;10.80;93.00
52555;DHT22;38455;52.710;6.502;2024-03-08T14:00:19;10.90;92.80
52555;DHT22;38455;52.710;6.502;2024-03-08T14:02:48;10.90;92.70
52555;DHT22;38455;52.710;6.502;2024-03-08T14:05:14;11.10;92.70
52555;DHT22;38455;52.710;6.502;2024-03-08T14:07:41;11.20;92.40
52555;DHT22;38455;52.710;6.502;2024-03-08T14:10:08;11.30;93.00
52555;DHT22;38455;52.710;6.502;2024-03-08T14:12:35;11.40;92.30
52555;DHT22;38455;52.710;6.502;2024-03-08T14:15:01;11.50;92.30
52555;DHT22;38455;52.710;6.502;2024-03-08T14:17:29;11.40;92.30
52555;DHT22;38455;52.710;6.502;2024-03-08T14:19:56;11.40;92.40
52555;DHT22;38455;52.710;6.502;2024-03-08T14:22:22;11.50;91.80
52555;DHT22;38455;52.710;6.502;2024-03-08T14:24:49;11.90;91.70
52555;DHT22;38455;52.710;6.502;2024-03-08T14:27:15;11.90;91.70
52555;DHT22;38455;52.710;6.502;2024-03-08T14:29:43;12.00;91.90
52555;DHT22;38455;52.710;6.502;2024-03-08T14:32:09;12.10;91.70
52555;DHT22;38455;52.710;6.502;2024-03-08T14:34:35;12.40;91.40
52555;DHT22;38455;52.710;6.502;2024-03-08T14:37:01;12.20;90.90
52555;DHT22;38455;52.710;6.502;2024-03-08T14:39:31;11.90;91.20
52555;DHT22;38455;52.710;6.502;2024-03-08T14:41:59;11.80;91.50
52555;DHT22;38455;52.710;6.502;2024-03-08T14:44:25;11.60;91.90
52555;DHT22;38455;52.710;6.502;2024-03-08T14:46:58;11.30;92.00
52555;DHT22;38455;52.710;6.502;2024-03-08T14:49:25;11.10;92.10
52555;DHT22;38455;52.710;6.502;2024-03-08T14:51:55;10.90;92.20
52555;DHT22;38455;52.710;6.502;2024-03-08T14:54:23;10.80;92.50
52555;DHT22;38455;52.710;6.502;2024-03-08T14:56:49;10.60;92.60
52555;DHT22;38455;52.710;6.502;2024-03-08T14:59:16;10.50;93.10
52555;DHT22;38455;52.710;6.502;2024-03-08T15:01:42;10.40;93.50
52555;DHT22;38455;52.710;6.502;2024-03-08T15:04:09;10.40;93.50
52555;DHT22;38455;52.710;6.502;2024-03-08T15:06:38;10.20;93.40
52555;DHT22;38455;52.710;6.502;2024-03-08T15:09:04;10.10;93.60
52555;DHT22;38455;52.710;6.502;2024-03-08T15:11:40;10.10;93.90
52555;DHT22;38455;52.710;6.502;2024-03-08T15:14:06;10.10;93.90
52555;DHT22;38455;52.710;6.502;2024-03-08T15:16:37;9.90;93.80
52555;DHT22;38455;52.710;6.502;2024-03-08T15:19:05;9.80;93.80
52555;DHT22;38455;52.710;6.502;2024-03-08T15:21:31;9.80;93.80
52555;DHT22;38455;52.710;6.502;2024-03-08T15:23:57;9.70;94.00
52555;DHT22;38455;52.710;6.502;2024-03-08T15:26:22;9.70;94.00
52555;DHT22;38455;52.710;6.502;2024-03-08T15:28:50;9.70;94.00
52555;DHT22;38455;52.710;6.502;2024-03-08T15:31:17;9.70;94.20
52555;DHT22;38455;52.710;6.502;2024-03-08T15:33:44;9.60;94.20
52555;DHT22;38455;52.710;6.502;2024-03-08T15:36:24;9.50;94.40
52555;DHT22;38455;52.710;6.502;2024-03-08T15:38:53;9.50;94.70
52555;DHT22;38455;52.710;6.502;2024-03-08T15:41:19;9.50;94.90
52555;DHT22;38455;52.710;6.502;2024-03-08T15:43:46;9.50;95.30
52555;DHT22;38455;52.710;6.502;2024-03-08T15:46:13;9.50;95.20
52555;DHT22;38455;52.710;6.502;2024-03-08T15:48:40;9.50;95.50